Time;durP1;ratioP1;P1;durP2;ratioP2;P2;SDS_P1;SDS_P2;PMS_P1;PMS_P2;Temp;Humidity;BMP_temperature;BMP_pressure;BME280_temperature;BME280_humidity;BME280_pressure;Samples;Min_cycle;Max_cycle;Signal;HPM_P1;HPM_P2
2022/10/24 00:01:24;;;;;;;4.60;1.10;;;;;;;16.25;42.85;101598.84;4835286;29;20113;-71
2022/10/24 00:03:52;;;;;;;4.38;1.33;;;;;;;16.17;43.66;101599.53;4831246;29;20162;-71
2022/10/24 00:06:22;;;;;;;6.25;0.95;;;;;;;16.08;48.05;101606.38;4835759;29;20058;-70
2022/10/24 00:08:51;;;;;;;6.93;1.27;;;;;;;15.96;48.70;101606.09;4835848;29;20137;-71
2022/10/24 00:11:23;;;;;;;2.30;0.63;;;;;;;15.83;49.21;101601.47;4831504;29;20065;-70
2022/10/24 00:13:52;;;;;;;2.60;0.83;;;;;;;15.60;49.32;101583.56;4830948;29;20461;-71
2022/10/24 00:16:21;;;;;;;1.92;0.73;;;;;;;15.61;46.95;101598.34;4828943;29;20125;-70
2022/10/24 00:18:50;;;;;;;3.80;0.93;;;;;;;15.54;52.24;101596.47;4832294;29;20061;-70
2022/10/24 00:21:20;;;;;;;4.68;0.80;;;;;;;15.46;49.57;101588.47;4833099;29;20058;-70
2022/10/24 00:23:50;;;;;;;3.03;0.80;;;;;;;15.35;52.62;101591.69;4830619;29;20057;-70
2022/10/24 00:26:19;;;;;;;6.57;1.00;;;;;;;15.15;53.23;101576.44;4832594;29;20050;-70
2022/10/24 00:28:47;;;;;;;3.97;1.20;;;;;;;15.19;53.89;101604.34;4831273;29;20053;-69
2022/10/24 00:31:17;;;;;;;3.03;1.08;;;;;;;15.15;54.24;101602.50;4836800;29;20098;-70
2022/10/24 00:33:46;;;;;;;4.43;1.23;;;;;;;15.12;55.03;101605.03;4837530;29;20061;-70
2022/10/24 00:36:16;;;;;;;3.00;0.98;;;;;;;15.06;55.37;101617.91;4832835;29;20565;-72
2022/10/24 00:38:45;;;;;;;6.18;1.35;;;;;;;15.05;55.29;101618.78;4840144;29;20542;-69
2022/10/24 00:41:18;;;;;;;6.43;1.00;;;;;;;14.99;54.19;101613.41;4836820;29;20092;-70
2022/10/24 00:43:47;;;;;;;2.33;1.38;;;;;;;14.88;51.06;101610.50;4834099;29;20065;-70
2022/10/24 00:46:17;;;;;;;1.85;0.65;;;;;;;14.81;53.18;101609.47;4837161;29;20061;-70
2022/10/24 00:48:48;;;;;;;4.32;1.08;;;;;;;14.75;55.12;101624.97;4832686;29;20679;-70
2022/10/24 00:51:23;;;;;;;5.68;1.52;;;;;;;14.70;55.02;101626.53;4835776;29;20107;-70
2022/10/24 00:53:54;;;;;;;5.97;1.13;;;;;;;14.61;57.54;101613.28;4836335;29;20068;-70
2022/10/24 00:56:30;;;;;;;1.80;0.60;;;;;;;14.55;57.96;101613.13;4834811;29;20497;-70
2022/10/24 00:59:00;;;;;;;2.10;0.93;;;;;;;14.40;60.66;101614.41;4834636;29;20074;-69
2022/10/24 01:01:28;;;;;;;1.55;0.70;;;;;;;14.26;61.83;101607.97;4837173;29;20057;-70
2022/10/24 01:03:57;;;;;;;4.82;0.88;;;;;;;14.20;61.12;101607.78;4835397;29;20520;-71
2022/10/24 01:06:42;;;;;;;2.47;1.20;;;;;;;14.11;61.01;101612.72;4838109;29;20586;-71
2022/10/24 01:09:23;;;;;;;3.15;0.75;;;;;;;13.98;61.35;101606.28;4836287;29;20068;-70
2022/10/24 01:12:04;;;;;;;2.78;0.90;;;;;;;13.88;58.87;101602.56;4831101;29;20070;-71
2022/10/24 01:14:42;;;;;;;3.25;1.40;;;;;;;13.82;55.30;101597.16;4837996;29;20192;-71
2022/10/24 01:17:16;;;;;;;7.03;1.30;;;;;;;13.78;53.95;101600.50;4835230;29;20061;-71
2022/10/24 01:20:34;;;;;;;1.17;0.90;;;;;;;13.74;62.68;101609.94;4833699;29;20054;-71
2022/10/24 01:23:15;;;;;;;3.40;0.90;;;;;;;13.60;63.16;101612.09;4829372;29;20081;-70
2022/10/24 01:25:53;;;;;;;3.85;1.02;;;;;;;13.54;62.20;101611.94;4836754;29;20061;-71
2022/10/24 01:28:29;;;;;;;2.22;0.85;;;;;;;13.49;62.69;101618.72;4832986;29;20065;-69
2022/10/24 01:31:08;;;;;;;7.82;1.67;;;;;;;13.42;59.21;101627.13;4836553;29;20140;-69
2022/10/24 01:33:41;;;;;;;3.63;1.10;;;;;;;13.32;59.26;101630.28;4833747;29;20043;-72
2022/10/24 01:36:14;;;;;;;5.18;1.30;;;;;;;13.26;58.93;101620.50;4835426;29;20128;-71
2022/10/24 01:38:46;;;;;;;6.10;1.58;;;;;;;13.21;59.59;101617.75;4832152;29;20085;-70
2022/10/24 01:41:19;;;;;;;3.47;1.10;;;;;;;13.14;59.25;101618.41;4833785;29;20046;-71
2022/10/24 01:43:53;;;;;;;3.72;1.45;;;;;;;13.08;60.47;101609.53;4834686;29;20458;-70
2022/10/24 01:46:28;;;;;;;7.25;1.42;;;;;;;13.02;61.76;101615.41;4831362;29;20813;-71
2022/10/24 01:49:01;;;;;;;3.90;1.35;;;;;;;12.99;62.92;101618.78;4832537;29;20065;-70
2022/10/24 01:51:32;;;;;;;5.72;1.35;;;;;;;12.93;63.47;101610.78;4833835;29;20064;-71
2022/10/24 01:54:03;;;;;;;7.78;1.63;;;;;;;12.84;61.29;101622.59;4832549;29;20050;-70
2022/10/24 01:56:32;;;;;;;4.15;1.80;;;;;;;12.79;60.46;101627.63;4832964;29;20219;-69
2022/10/24 01:59:08;;;;;;;5.20;1.77;;;;;;;12.78;60.19;101628.44;4834693;29;20083;-69
2022/10/24 02:01:39;;;;;;;7.18;1.75;;;;;;;12.78;60.01;101634.53;4834114;29;20049;-70
2022/10/24 02:04:11;;;;;;;3.63;1.52;;;;;;;12.81;63.08;101628.56;4833633;29;20341;-71
2022/10/24 02:06:42;;;;;;;4.57;1.30;;;;;;;12.80;64.18;101624.19;4833893;29;20066;-71
2022/10/24 02:09:16;;;;;;;3.38;1.88;;;;;;;12.77;63.63;101634.47;4831091;29;20561;-71
2022/10/24 02:11:46;;;;;;;3.63;1.80;;;;;;;12.70;63.16;101630.78;4833132;29;20058;-72
2022/10/24 02:14:20;;;;;;;3.40;2.10;;;;;;;12.64;62.26;101627.97;4833558;29;20053;-71
2022/10/24 02:16:50;;;;;;;6.60;1.85;;;;;;;12.64;61.91;101627.09;4830496;29;20049;-70
2022/10/24 02:19:20;;;;;;;10.10;2.13;;;;;;;12.61;62.88;101630.47;4836941;29;20057;-70
2022/10/24 02:21:56;;;;;;;3.88;1.60;;;;;;;12.56;64.17;101629.44;4834379;29;20060;-71
2022/10/24 02:24:29;;;;;;;4.10;2.42;;;;;;;12.51;64.08;101620.59;4830954;29;20057;-71
2022/10/24 02:27:02;;;;;;;9.00;2.45;;;;;;;12.46;64.11;101623.03;4833244;29;20080;-71
2022/10/24 02:29:37;;;;;;;11.70;2.90;;;;;;;12.40;65.42;101617.63;4831636;29;20119;-69
2022/10/24 02:32:12;;;;;;;8.20;2.13;;;;;;;12.34;66.95;101609.59;4835610;29;20045;-70
2022/10/24 02:34:43;;;;;;;5.07;1.95;;;;;;;12.38;65.79;101620.97;4836158;29;20046;-70
2022/10/24 02:37:14;;;;;;;6.55;2.13;;;;;;;12.33;66.51;101621.69;4832193;29;20068;-69
2022/10/24 02:39:46;;;;;;;6.60;1.70;;;;;;;12.31;66.29;101630.25;4832256;29;20058;-68
2022/10/24 02:42:17;;;;;;;7.15;2.88;;;;;;;12.26;65.99;101624.91;4834424;29;20054;-69
2022/10/24 02:44:48;;;;;;;5.57;1.70;;;;;;;12.24;65.34;101629.16;4835335;29;20066;-68
2022/10/24 02:47:20;;;;;;;5.05;2.13;;;;;;;12.22;65.19;101627.31;4835731;29;20085;-70
2022/10/24 02:49:49;;;;;;;15.37;2.53;;;;;;;12.14;66.68;101627.06;4837353;29;20131;-69
2022/10/24 02:52:18;;;;;;;8.48;2.13;;;;;;;12.06;67.57;101625.88;4826589;29;20057;-69
2022/10/24 02:54:47;;;;;;;7.38;1.70;;;;;;;11.94;71.25;101627.19;4832064;29;20052;-68
2022/10/24 02:57:16;;;;;;;3.72;1.70;;;;;;;11.83;73.00;101633.63;4834634;29;20050;-69
2022/10/24 02:59:44;;;;;;;4.22;1.80;;;;;;;11.67;75.56;101610.53;4836585;29;20432;-70
2022/10/24 03:02:13;;;;;;;5.03;1.55;;;;;;;11.65;77.14;101627.75;4828611;29;20085;-70
2022/10/24 03:04:43;;;;;;;5.68;1.67;;;;;;;11.64;77.25;101631.16;4836061;29;20615;-70
2022/10/24 03:07:12;;;;;;;5.63;2.45;;;;;;;11.65;76.38;101627.75;4836771;29;20061;-70
2022/10/24 03:09:40;;;;;;;5.05;1.95;;;;;;;11.66;75.47;101624.31;4835037;29;20046;-70
2022/10/24 03:12:09;;;;;;;7.43;2.33;;;;;;;11.65;74.46;101628.63;4836771;29;20053;-69
2022/10/24 03:14:38;;;;;;;9.20;2.95;;;;;;;11.64;73.32;101607.84;4828536;29;20582;-69
2022/10/24 03:17:06;;;;;;;9.65;3.22;;;;;;;11.63;72.14;101619.00;4834690;29;20046;-69
2022/10/24 03:19:35;;;;;;;8.38;2.95;;;;;;;11.59;72.31;101619.72;4833816;29;20054;-70
2022/10/24 03:22:05;;;;;;;11.90;3.25;;;;;;;11.54;72.87;101627.31;4831158;29;20578;-69
2022/10/24 03:24:34;;;;;;;10.18;3.45;;;;;;;11.48;72.20;101625.38;4826059;29;20050;-68
2022/10/24 03:27:02;;;;;;;5.93;2.40;;;;;;;11.42;71.84;101625.13;4834634;29;20054;-69
2022/10/24 03:29:31;;;;;;;8.40;3.08;;;;;;;11.37;71.60;101618.00;4834255;29;20054;-69
2022/10/24 03:31:59;;;;;;;8.82;3.35;;;;;;;11.30;71.90;101619.44;4836618;29;20095;-69
2022/10/24 03:34:28;;;;;;;7.32;2.70;;;;;;;11.22;71.63;101623.44;4837755;29;20057;-70
2022/10/24 03:36:56;;;;;;;8.70;3.08;;;;;;;11.15;71.81;101619.69;4831449;29;20550;-69
2022/10/24 03:39:27;;;;;;;5.38;2.00;;;;;;;11.11;71.89;101625.59;4833781;29;20053;-69
2022/10/24 03:41:55;;;;;;;10.18;2.92;;;;;;;11.07;72.36;101624.56;4837089;29;20045;-69
2022/10/24 03:44:24;;;;;;;7.32;3.22;;;;;;;10.97;72.72;101618.94;4833193;29;20061;-69
2022/10/24 03:46:52;;;;;;;8.13;2.85;;;;;;;10.88;72.58;101614.25;4830956;29;20050;-69
2022/10/24 03:49:21;;;;;;;10.40;3.08;;;;;;;10.91;72.22;101624.75;4831095;29;20107;-70
2022/10/24 03:51:49;;;;;;;6.93;3.08;;;;;;;10.84;74.17;101620.16;4832945;29;20054;-70
2022/10/24 03:54:18;;;;;;;4.70;2.58;;;;;;;10.77;75.74;101606.06;4840447;29;20050;-70
2022/10/24 03:56:48;;;;;;;6.57;2.72;;;;;;;10.72;77.05;101596.31;4829501;29;20497;-69
2022/10/24 03:59:17;;;;;;;10.63;3.75;;;;;;;10.63;79.17;101614.94;4829877;29;20078;-69
2022/10/24 04:01:46;;;;;;;13.63;2.95;;;;;;;10.56;79.51;101621.56;4831728;29;20061;-69
2022/10/24 04:04:14;;;;;;;7.32;2.45;;;;;;;10.57;78.94;101628.50;4836208;29;20042;-69
2022/10/24 04:06:43;;;;;;;9.60;2.80;;;;;;;10.55;78.27;101624.94;4838244;29;20066;-69
2022/10/24 04:09:12;;;;;;;6.88;2.70;;;;;;;10.53;78.08;101630.88;4828563;29;20058;-69
2022/10/24 04:11:40;;;;;;;8.32;2.35;;;;;;;10.50;76.93;101636.81;4837331;29;20748;-70
2022/10/24 04:14:10;;;;;;;12.52;2.92;;;;;;;10.48;76.52;101633.28;4835244;29;20474;-69
2022/10/24 04:16:39;;;;;;;5.80;2.22;;;;;;;10.45;77.05;101634.03;4837708;29;20057;-69
2022/10/24 04:19:09;;;;;;;8.48;3.58;;;;;;;10.43;76.97;101632.19;4832463;29;20060;-69
2022/10/24 04:21:38;;;;;;;6.38;2.75;;;;;;;10.41;77.67;101631.22;4837240;29;20137;-69
2022/10/24 04:24:07;;;;;;;5.45;2.33;;;;;;;10.40;77.25;101629.44;4836437;29;20050;-69
2022/10/24 04:26:35;;;;;;;9.88;3.03;;;;;;;10.38;77.86;101626.81;4838083;29;20049;-69
2022/10/24 04:29:04;;;;;;;4.80;2.38;;;;;;;10.34;78.12;101618.84;4838430;29;20054;-68
2022/10/24 04:31:34;;;;;;;9.55;2.25;;;;;;;10.23;81.90;101611.44;4838002;29;20046;-69
2022/10/24 04:34:04;;;;;;;6.10;1.98;;;;;;;10.14;82.19;101621.38;4835326;29;20054;-69
2022/10/24 04:36:32;;;;;;;10.45;3.95;;;;;;;10.07;81.51;101614.16;4833072;29;20050;-69
2022/10/24 04:39:01;;;;;;;3.95;2.17;;;;;;;10.09;82.06;101619.41;4835019;29;20649;-69
2022/10/24 04:41:30;;;;;;;12.45;2.78;;;;;;;10.13;82.87;101623.91;4837036;29;20468;-69
2022/10/24 04:43:58;;;;;;;8.68;2.67;;;;;;;10.17;82.56;101618.03;4834179;29;20559;-69
2022/10/24 04:46:27;;;;;;;9.20;2.60;;;;;;;10.19;81.28;101616.41;4835624;29;20467;-69
2022/10/24 04:48:57;;;;;;;3.47;1.80;;;;;;;10.14;83.37;101621.38;4834123;29;20576;-68
2022/10/24 04:51:27;;;;;;;7.82;2.88;;;;;;;10.05;83.75;101620.97;4839742;29;20053;-69
2022/10/24 04:53:56;;;;;;;6.13;2.38;;;;;;;10.00;83.86;101609.53;4839086;29;20054;-69
2022/10/24 04:56:25;;;;;;;9.68;2.92;;;;;;;10.00;83.44;101620.75;4839428;29;20561;-69
2022/10/24 04:58:54;;;;;;;8.65;2.15;;;;;;;10.00;83.80;101617.28;4835405;29;20058;-69
2022/10/24 05:01:22;;;;;;;5.50;2.70;;;;;;;9.95;84.26;101603.28;4831531;29;20532;-69
2022/10/24 05:03:51;;;;;;;9.73;2.75;;;;;;;9.96;85.04;101599.88;4831972;29;20046;-68
2022/10/24 05:06:21;;;;;;;6.78;2.47;;;;;;;10.00;84.20;101597.50;4835380;29;20416;-70
2022/10/24 05:08:50;;;;;;;4.57;2.20;;;;;;;10.03;84.64;101588.97;4828083;29;20573;-70
2022/10/24 05:11:18;;;;;;;6.10;2.20;;;;;;;10.04;82.83;101589.06;4833601;29;20050;-69
2022/10/24 05:13:47;;;;;;;5.10;2.25;;;;;;;10.03;82.41;101587.31;4836874;29;20438;-69
2022/10/24 05:16:15;;;;;;;8.95;2.42;;;;;;;10.07;84.17;101589.19;4830440;29;20058;-69
2022/10/24 05:18:44;;;;;;;4.03;1.90;;;;;;;10.11;83.59;101590.22;4839667;29;20110;-69
2022/10/24 05:21:13;;;;;;;6.05;1.70;;;;;;;10.15;83.20;101594.72;4829996;29;20069;-69
2022/10/24 05:23:43;;;;;;;6.07;2.50;;;;;;;10.17;83.87;101605.13;4834453;29;20211;-70
2022/10/24 05:26:11;;;;;;;7.72;2.20;;;;;;;10.20;82.91;101605.28;4828390;29;20050;-69
2022/10/24 05:28:40;;;;;;;6.85;2.40;;;;;;;10.20;82.80;101606.16;4829851;29;20049;-69
2022/10/24 05:31:09;;;;;;;7.03;2.47;;;;;;;10.23;82.79;101619.22;4835446;29;20081;-69
2022/10/24 05:33:37;;;;;;;6.22;2.78;;;;;;;10.25;82.07;101612.41;4832555;29;20519;-69
2022/10/24 05:36:07;;;;;;;8.15;2.35;;;;;;;10.26;81.48;101609.03;4833366;29;20078;-69
2022/10/24 05:38:36;;;;;;;6.18;2.60;;;;;;;10.29;81.50;101616.06;4835209;29;20420;-69
2022/10/24 05:41:06;;;;;;;10.25;2.35;;;;;;;10.31;82.49;101613.50;4839863;29;20416;-68
2022/10/24 05:43:35;;;;;;;7.38;3.17;;;;;;;10.32;82.94;101615.31;4835009;29;20186;-69
2022/10/24 05:46:06;;;;;;;4.53;2.17;;;;;;;10.33;82.96;101612.78;4834467;29;20053;-69
2022/10/24 05:48:34;;;;;;;5.35;2.72;;;;;;;10.34;82.22;101624.03;4841122;29;20527;-68
2022/10/24 05:51:03;;;;;;;5.18;2.33;;;;;;;10.32;83.14;101620.47;4840961;29;20500;-69
2022/10/24 05:53:31;;;;;;;7.40;2.20;;;;;;;10.34;83.37;101606.78;4838131;29;20133;-69
2022/10/24 05:56:07;;;;;;;9.82;2.95;;;;;;;10.33;82.54;101581.75;4837988;29;20145;-69
2022/10/24 05:58:38;;;;;;;12.07;3.03;;;;;;;10.29;82.66;101576.38;4830324;29;20168;-69
2022/10/24 06:01:07;;;;;;;8.32;3.10;;;;;;;10.23;84.27;101577.81;4836160;29;20050;-69
2022/10/24 06:03:35;;;;;;;8.65;2.55;;;;;;;10.16;84.10;101568.03;4837615;29;20125;-69
2022/10/24 06:06:09;;;;;;;6.63;2.42;;;;;;;10.15;84.02;101581.78;4834690;29;20058;-70
2022/10/24 06:08:38;;;;;;;7.72;2.05;;;;;;;10.12;85.01;101591.97;4834403;29;20061;-69
2022/10/24 06:11:10;;;;;;;9.98;2.22;;;;;;;10.19;84.23;101582.78;4829594;29;20414;-69
2022/10/24 06:13:40;;;;;;;6.15;2.63;;;;;;;10.17;85.10;101584.41;4834173;29;20057;-69
2022/10/24 06:16:10;;;;;;;7.60;2.60;;;;;;;10.14;85.37;101585.19;4834323;29;20042;-69
2022/10/24 06:18:40;;;;;;;4.30;2.35;;;;;;;10.16;85.53;101561.97;4831427;29;20098;-69
2022/10/24 06:21:10;;;;;;;8.18;2.83;;;;;;;10.18;84.61;101565.53;4835114;29;20533;-69
2022/10/24 06:23:39;;;;;;;6.07;2.50;;;;;;;10.17;84.41;101561.16;4832224;29;20050;-69
2022/10/24 06:26:10;;;;;;;7.18;2.55;;;;;;;10.15;85.04;101553.34;4832144;29;20540;-68
2022/10/24 06:28:40;;;;;;;6.63;2.40;;;;;;;10.15;84.91;101562.81;4830065;29;20583;-69
2022/10/24 06:31:11;;;;;;;9.98;3.55;;;;;;;10.14;84.96;101561.03;4833230;29;20050;-69
2022/10/24 06:33:40;;;;;;;6.82;2.33;;;;;;;10.15;83.53;101566.28;4831192;29;20060;-69
2022/10/24 06:36:09;;;;;;;8.52;2.55;;;;;;;10.19;84.00;101563.00;4832376;29;20436;-69
2022/10/24 06:38:38;;;;;;;10.43;2.72;;;;;;;10.23;85.05;101570.06;4831919;29;20452;-69
2022/10/24 06:41:08;;;;;;;6.43;2.42;;;;;;;10.25;85.33;101578.78;4834519;29;20441;-69
2022/10/24 06:43:41;;;;;;;7.20;2.00;;;;;;;10.28;85.95;101583.19;4833293;29;20056;-69
2022/10/24 06:46:11;;;;;;;12.63;3.25;;;;;;;10.22;85.13;101572.59;4834365;29;20050;-69
2022/10/24 06:48:39;;;;;;;8.00;2.00;;;;;;;10.31;84.91;101585.06;4836420;29;20061;-69
2022/10/24 06:51:08;;;;;;;6.85;2.22;;;;;;;10.33;84.39;101593.78;4836365;29;20110;-69
2022/10/24 06:53:36;;;;;;;6.13;2.55;;;;;;;10.33;83.91;101586.03;4831533;29;20061;-69
2022/10/24 06:56:06;;;;;;;6.53;2.97;;;;;;;10.30;84.18;101562.63;4830475;29;20061;-69
2022/10/24 06:58:36;;;;;;;8.48;2.63;;;;;;;10.23;85.58;101551.97;4834026;29;20501;-69
2022/10/24 07:01:11;;;;;;;5.85;2.17;;;;;;;10.18;86.88;101537.06;4837110;29;20098;-69
2022/10/24 07:03:39;;;;;;;8.60;2.50;;;;;;;10.15;87.17;101540.41;4836822;29;20477;-69
2022/10/24 07:06:10;;;;;;;7.60;2.40;;;;;;;10.16;88.09;101551.63;4835841;29;20070;-69
2022/10/24 07:08:39;;;;;;;6.25;2.83;;;;;;;10.18;86.97;101558.63;4837169;29;20046;-70
2022/10/24 07:11:07;;;;;;;7.03;2.72;;;;;;;10.18;86.19;101560.34;4832372;29;20050;-69
2022/10/24 07:13:36;;;;;;;4.18;1.85;;;;;;;10.25;86.01;101560.66;4832756;29;20437;-70
2022/10/24 07:16:06;;;;;;;9.32;2.70;;;;;;;10.23;85.93;101546.78;4832674;29;20061;-69
2022/10/24 07:18:36;;;;;;;7.18;2.50;;;;;;;10.29;86.13;101559.16;4827679;29;20057;-69
2022/10/24 07:21:06;;;;;;;9.40;3.13;;;;;;;10.31;86.46;101559.19;4835680;29;20049;-69
2022/10/24 07:23:35;;;;;;;7.32;2.75;;;;;;;10.33;85.88;101566.22;4833710;29;20539;-69
2022/10/24 07:26:13;;;;;;;6.72;2.22;;;;;;;10.35;85.96;101568.88;4833775;29;20053;-69
2022/10/24 07:28:45;;;;;;;6.55;2.10;;;;;;;10.36;85.97;101568.94;4835372;29;20114;-69
2022/10/24 07:31:14;;;;;;;5.40;2.13;;;;;;;10.37;85.92;101557.75;4837270;29;20145;-69
2022/10/24 07:33:45;;;;;;;4.05;2.38;;;;;;;10.38;85.64;101558.66;4830359;29;20062;-69
2022/10/24 07:36:18;;;;;;;9.27;2.50;;;;;;;10.36;86.13;101549.97;4835086;29;20137;-69
2022/10/24 07:38:47;;;;;;;7.30;2.38;;;;;;;10.34;88.00;101544.72;4832603;29;20061;-69
2022/10/24 07:41:16;;;;;;;8.43;2.38;;;;;;;10.37;88.41;101546.53;4833888;29;20054;-70
2022/10/24 07:43:45;;;;;;;3.33;1.85;;;;;;;10.37;87.75;101546.53;4836288;29;20484;-69
2022/10/24 07:46:16;;;;;;;7.47;2.67;;;;;;;10.39;87.60;101539.72;4831676;29;20548;-69
2022/10/24 07:48:46;;;;;;;8.35;3.10;;;;;;;10.41;87.05;101533.78;4838943;29;20421;-69
2022/10/24 07:51:15;;;;;;;5.68;2.58;;;;;;;10.44;87.17;101538.22;4833737;29;20482;-68
2022/10/24 07:53:45;;;;;;;7.22;2.33;;;;;;;10.45;85.63;101527.94;4830067;29;20455;-69
2022/10/24 07:56:15;;;;;;;5.25;2.55;;;;;;;10.43;86.19;101518.34;4833930;29;20056;-68
2022/10/24 07:58:45;;;;;;;4.50;1.92;;;;;;;10.38;87.54;101506.94;4832806;29;20536;-69
2022/10/24 08:01:16;;;;;;;6.82;2.25;;;;;;;10.36;87.04;101505.97;4830625;29;20054;-69
2022/10/24 08:03:46;;;;;;;5.40;2.63;;;;;;;10.37;85.82;101500.84;4835092;29;20050;-69
2022/10/24 08:06:17;;;;;;;6.82;2.33;;;;;;;10.39;83.14;101488.00;4829320;29;20417;-69
2022/10/24 08:08:46;;;;;;;6.47;2.35;;;;;;;10.40;82.82;101488.06;4837576;29;20047;-72
2022/10/24 08:11:17;;;;;;;13.23;3.53;;;;;;;10.38;82.75;101487.13;4837803;29;20070;-70
2022/10/24 08:13:46;;;;;;;5.32;2.25;;;;;;;10.40;83.44;101484.56;4835691;29;20056;-69
2022/10/24 08:16:17;;;;;;;6.70;2.10;;;;;;;10.41;82.29;101471.72;4838542;29;20454;-69
2022/10/24 08:18:47;;;;;;;5.32;2.97;;;;;;;10.43;82.05;101458.84;4834116;29;20531;-70
2022/10/24 08:21:18;;;;;;;5.70;2.60;;;;;;;10.43;81.54;101453.66;4834834;29;20057;-71
2022/10/24 08:23:48;;;;;;;5.55;2.17;;;;;;;10.47;82.16;101440.03;4833375;29;20099;-69
2022/10/24 08:26:19;;;;;;;5.93;1.80;;;;;;;10.48;82.42;101434.03;4835723;29;20436;-70
2022/10/24 08:28:48;;;;;;;4.80;1.98;;;;;;;10.50;81.59;101432.41;4832268;29;20050;-70
2022/10/24 08:31:18;;;;;;;3.30;1.70;;;;;;;10.53;80.64;101423.88;4836043;29;20058;-69
2022/10/24 08:33:49;;;;;;;7.32;2.03;;;;;;;10.54;80.76;101415.31;4838569;29;20424;-70
2022/10/24 08:36:20;;;;;;;2.45;1.30;;;;;;;10.54;81.13;101403.25;4832971;29;20060;-70
2022/10/24 08:38:49;;;;;;;5.03;1.88;;;;;;;10.54;81.81;101395.47;4839980;29;20620;-69
2022/10/24 08:41:26;;;;;;;5.03;1.42;;;;;;;10.48;80.51;101382.28;4837424;29;20462;-69
2022/10/24 08:43:55;;;;;;;5.75;1.30;;;;;;;10.48;81.92;101380.56;4835622;29;20050;-70
2022/10/24 08:46:47;;;;;;;2.45;1.30;;;;;;;10.50;81.41;101383.25;4835511;29;20817;-69
2022/10/24 08:49:30;;;;;;;3.73;1.83;;;;;;;10.50;81.70;101380.66;4826838;29;20655;-69
2022/10/24 08:52:02;;;;;;;7.65;2.20;;;;;;;10.45;81.77;101384.75;4832840;29;20800;-69
2022/10/24 08:54:38;;;;;;;5.25;2.13;;;;;;;10.50;81.33;101403.94;4837181;29;20141;-70
2022/10/24 08:57:08;;;;;;;2.88;1.45;;;;;;;10.42;81.23;101380.34;4836137;29;20049;-69
2022/10/24 08:59:38;;;;;;;6.60;1.38;;;;;;;10.55;80.34;101405.00;4832740;29;20058;-69
2022/10/24 09:02:18;;;;;;;3.08;1.63;;;;;;;10.59;80.87;101401.72;4835907;29;20037;-70
2022/10/24 09:04:53;;;;;;;6.43;1.63;;;;;;;10.62;80.14;101407.00;4834015;29;20512;-71
2022/10/24 09:07:23;;;;;;;5.68;1.38;;;;;;;10.64;79.87;101407.94;4837329;29;20054;-69
2022/10/24 09:09:59;;;;;;;1.75;1.00;;;;;;;10.68;80.13;101391.72;4839864;29;20493;-69
2022/10/24 09:12:28;;;;;;;2.75;1.13;;;;;;;10.72;80.34;101389.25;4837535;29;20808;-70
2022/10/24 09:15:00;;;;;;;3.67;1.17;;;;;;;10.76;79.80;101388.53;4833884;29;20057;-69
2022/10/24 09:17:32;;;;;;;6.03;1.17;;;;;;;10.76;80.31;101375.59;4829975;29;20050;-70
2022/10/24 09:20:15;;;;;;;3.67;1.42;;;;;;;10.80;79.10;101367.13;4836442;29;20050;-69
2022/10/24 09:22:45;;;;;;;5.85;1.40;;;;;;;10.83;79.27;101370.72;4835632;29;20062;-70
2022/10/24 09:25:17;;;;;;;2.17;0.77;;;;;;;10.86;79.61;101363.09;4835291;29;20061;-70
2022/10/24 09:27:46;;;;;;;5.63;1.88;;;;;;;10.89;79.12;101354.53;4829554;29;20611;-70
2022/10/24 09:30:18;;;;;;;4.63;1.15;;;;;;;10.89;78.77;101349.38;4834473;29;20057;-69
2022/10/24 09:32:47;;;;;;;2.03;0.73;;;;;;;10.88;78.93;101355.34;4836870;29;20396;-69
2022/10/24 09:35:22;;;;;;;2.40;1.23;;;;;;;10.91;79.17;101352.91;4837257;29;20599;-69
2022/10/24 09:37:54;;;;;;;3.33;1.00;;;;;;;10.93;78.48;101353.84;4838029;29;20496;-68
2022/10/24 09:40:25;;;;;;;4.97;1.25;;;;;;;10.96;78.48;101342.72;4839303;29;20057;-70
2022/10/24 09:42:59;;;;;;;6.93;0.93;;;;;;;10.96;78.12;101330.66;4837329;29;20393;-69
2022/10/24 09:45:35;;;;;;;1.42;0.80;;;;;;;10.96;78.22;101320.28;4833145;29;20057;-69
2022/10/24 09:48:08;;;;;;;2.13;1.27;;;;;;;10.96;78.53;101319.41;4834985;29;20137;-71
2022/10/24 09:50:37;;;;;;;;;;;;;;;10.95;78.31;101323.72;4827168;29;20529;-69
2022/10/24 09:53:06;;;;;;;4.97;0.80;;;;;;;10.96;78.13;101320.28;4838287;29;19928;-68
2022/10/24 09:55:47;;;;;;;7.32;1.13;;;;;;;10.98;78.24;101321.22;4834345;29;20062;-68
2022/10/24 09:58:21;;;;;;;1.30;0.80;;;;;;;10.99;78.00;101316.91;4831694;29;20078;-69
2022/10/24 10:00:59;;;;;;;3.60;1.15;;;;;;;10.99;78.33;101302.25;4832021;29;20523;-68
2022/10/24 10:03:27;;;;;;;2.58;0.90;;;;;;;10.97;78.31;101306.53;4836307;29;20045;-68
2022/10/24 10:05:59;;;;;;;2.33;1.08;;;;;;;10.98;78.47;101290.16;4832865;29;20168;-69
2022/10/24 10:08:30;;;;;;;5.40;1.10;;;;;;;10.98;78.05;101278.91;4836655;29;20111;-68
2022/10/24 10:11:02;;;;;;;2.67;0.73;;;;;;;10.99;78.28;101276.38;4834227;29;20460;-68
2022/10/24 10:13:36;;;;;;;1.97;0.67;;;;;;;10.99;78.80;101276.38;4832459;29;20049;-68
2022/10/24 10:16:06;;;;;;;6.18;1.00;;;;;;;11.00;77.74;101278.16;4835278;29;20076;-68
2022/10/24 10:18:44;;;;;;;3.15;1.13;;;;;;;10.99;77.32;101276.38;4833270;29;20050;-69
2022/10/24 10:21:16;;;;;;;4.30;0.90;;;;;;;10.99;77.72;101266.00;4836290;29;20414;-71
2022/10/24 10:23:46;;;;;;;7.30;1.05;;;;;;;10.99;77.95;101254.78;4834867;29;20071;-69
2022/10/24 10:26:21;;;;;;;3.17;1.08;;;;;;;11.00;77.77;101267.78;4837887;29;20688;-70
2022/10/24 10:29:01;;;;;;;2.40;0.98;;;;;;;11.01;78.45;101277.31;4837570;29;20133;-68
2022/10/24 10:31:38;;;;;;;2.88;1.33;;;;;;;11.01;79.09;101281.63;4834802;29;20505;-69
2022/10/24 10:34:26;;;;;;;1.77;0.70;;;;;;;11.00;78.85;101285.91;4837700;29;20519;-68
2022/10/24 10:37:15;;;;;;;9.30;1.05;;;;;;;11.00;77.88;101285.03;4832149;29;20054;-68
2022/10/24 10:40:13;;;;;;;1.17;0.60;;;;;;;10.99;77.80;101278.94;4829460;29;20046;-68
2022/10/24 10:42:52;;;;;;;2.50;1.00;;;;;;;11.00;79.50;101303.16;4828403;29;20549;-69
2022/10/24 10:45:33;;;;;;;3.08;0.93;;;;;;;10.99;79.90;101294.50;4824717;29;20061;-69
2022/10/24 10:48:14;;;;;;;5.22;0.88;;;;;;;10.99;80.84;101299.66;4828121;29;20061;-69
2022/10/24 10:50:49;;;;;;;6.13;0.85;;;;;;;10.96;79.61;101291.81;4835800;29;20054;-69
2022/10/24 10:53:30;;;;;;;2.08;0.98;;;;;;;10.94;81.13;101287.41;4832771;29;20054;-69
2022/10/24 10:56:09;;;;;;;2.65;0.75;;;;;;;10.89;80.71;101284.66;4833584;29;20046;-69
2022/10/24 10:58:44;;;;;;;5.63;1.00;;;;;;;10.86;81.32;101280.25;4831508;29;20054;-70
2022/10/24 11:01:22;;;;;;;6.60;1.00;;;;;;;10.84;81.94;101278.41;4838521;29;20050;-69
2022/10/24 11:03:59;;;;;;;2.05;0.73;;;;;;;10.80;82.54;101284.31;4830538;29;20076;-70
2022/10/24 11:06:39;;;;;;;1.33;0.70;;;;;;;10.77;83.84;101271.25;4832239;29;20063;-69
2022/10/24 11:09:25;;;;;;;10.38;0.93;;;;;;;10.72;84.12;101257.25;4832992;29;20382;-72
2022/10/24 11:12:00;;;;;;;3.13;0.57;;;;;;;10.67;85.10;101270.91;4831237;29;20135;-71
2022/10/24 11:14:33;;;;;;;1.10;0.82;;;;;;;10.59;85.11;101254.22;4832684;29;20500;-73
2022/10/24 11:17:12;;;;;;;1.92;0.55;;;;;;;10.59;85.82;101253.34;4831234;29;20575;-71
2022/10/24 11:19:55;;;;;;;1.23;0.95;;;;;;;10.55;86.35;101247.16;4831550;29;20050;-71
2022/10/24 11:22:27;;;;;;;3.58;1.10;;;;;;;10.53;85.78;101234.97;4833850;29;20049;-71
2022/10/24 11:25:03;;;;;;;4.45;1.02;;;;;;;10.50;86.41;101234.88;4830511;29;20058;-72
2022/10/24 11:27:40;;;;;;;7.43;0.77;;;;;;;10.47;86.55;101235.66;4835931;29;20049;-73
2022/10/24 11:30:16;;;;;;;1.98;0.70;;;;;;;10.42;86.58;101224.22;4832247;29;20054;-73
2022/10/24 11:32:51;;;;;;;1.42;0.80;;;;;;;10.40;88.82;101223.28;4831683;29;20085;-72
2022/10/24 11:35:29;;;;;;;0.63;0.52;;;;;;;10.36;89.42;101224.00;4835508;29;20146;-73
2022/10/24 11:38:03;;;;;;;1.27;0.73;;;;;;;10.33;90.31;101218.69;4828678;29;20110;-72
2022/10/24 11:40:33;;;;;;;0.77;0.50;;;;;;;10.28;92.76;101210.75;4831359;29;20523;-73
2022/10/24 11:43:12;;;;;;;3.33;0.65;;;;;;;10.21;92.35;101213.91;4832751;29;20167;-74
2022/10/24 11:45:46;;;;;;;8.68;1.42;;;;;;;10.09;91.44;101216.91;4836288;29;20046;-72